sensor_id;sensor_type;location;lat;lon;timestamp;temperature;humidity
30250;DHT22;17064;47.974;13.826;2022-12-19T04:03:55;-6.00;99.90
30250;DHT22;17064;47.974;13.826;2022-12-19T04:08:58;-6.00;99.90
30250;DHT22;17064;47.974;13.826;2022-12-19T04:14:06;-6.00;99.90
30250;DHT22;17064;47.974;13.826;2022-12-19T04:19:12;-6.00;99.90
30250;DHT22;17064;47.974;13.826;2022-12-19T04:24:20;-6.00;99.90
30250;DHT22;17064;47.974;13.826;2022-12-19T04:29:22;-6.00;99.90
30250;DHT22;17064;47.974;13.826;2022-12-19T04:34:24;-6.00;99.90
30250;DHT22;17064;47.974;13.826;2022-12-19T04:39:26;-6.00;99.90
30250;DHT22;17064;47.974;13.826;2022-12-19T04:44:27;-6.00;99.90
30250;DHT22;17064;47.974;13.826;2022-12-19T04:49:28;-6.00;99.90
30250;DHT22;17064;47.974;13.826;2022-12-19T04:54:29;-5.90;99.90
30250;DHT22;17064;47.974;13.826;2022-12-19T04:59:29;-5.90;99.90
30250;DHT22;17064;47.974;13.826;2022-12-19T05:04:31;-5.90;99.90
30250;DHT22;17064;47.974;13.826;2022-12-19T05:09:31;-5.80;99.90
30250;DHT22;17064;47.974;13.826;2022-12-19T05:14:33;-5.80;99.90
30250;DHT22;17064;47.974;13.826;2022-12-19T05:19:34;-5.80;99.90
30250;DHT22;17064;47.974;13.826;2022-12-19T05:24:34;-5.90;99.90
30250;DHT22;17064;47.974;13.826;2022-12-19T05:29:35;-5.90;99.90
30250;DHT22;17064;47.974;13.826;2022-12-19T05:34:36;-5.90;99.90
30250;DHT22;17064;47.974;13.826;2022-12-19T05:39:36;-5.90;99.90
30250;DHT22;17064;47.974;13.826;2022-12-19T05:44:37;-5.90;99.90
30250;DHT22;17064;47.974;13.826;2022-12-19T05:49:38;-5.90;99.90
30250;DHT22;17064;47.974;13.826;2022-12-19T05:54:39;-5.80;99.90
30250;DHT22;17064;47.974;13.826;2022-12-19T05:59:39;-5.70;99.90
30250;DHT22;17064;47.974;13.826;2022-12-19T06:04:40;-5.70;99.90
30250;DHT22;17064;47.974;13.826;2022-12-19T06:09:41;-5.70;99.90
30250;DHT22;17064;47.974;13.826;2022-12-19T06:14:42;-5.60;99.90
30250;DHT22;17064;47.974;13.826;2022-12-19T06:19:43;-5.60;99.90
30250;DHT22;17064;47.974;13.826;2022-12-19T06:24:44;-5.50;99.90
30250;DHT22;17064;47.974;13.826;2022-12-19T06:29:44;-5.50;99.90
30250;DHT22;17064;47.974;13.826;2022-12-19T06:34:45;-5.50;99.90
30250;DHT22;17064;47.974;13.826;2022-12-19T06:39:46;-5.50;99.90
30250;DHT22;17064;47.974;13.826;2022-12-19T06:44:46;-5.40;99.90
30250;DHT22;17064;47.974;13.826;2022-12-19T06:49:47;-5.40;99.90
30250;DHT22;17064;47.974;13.826;2022-12-19T06:54:49;-5.30;99.90
30250;DHT22;17064;47.974;13.826;2022-12-19T06:59:50;-5.30;99.90
30250;DHT22;17064;47.974;13.826;2022-12-19T07:04:55;-5.20;99.90
30250;DHT22;17064;47.974;13.826;2022-12-19T07:09:57;-5.10;99.90
30250;DHT22;17064;47.974;13.826;2022-12-19T07:14:57;-5.00;99.90
30250;DHT22;17064;47.974;13.826;2022-12-19T07:19:58;-4.90;99.90
30250;DHT22;17064;47.974;13.826;2022-12-19T07:25:00;-4.80;99.90
30250;DHT22;17064;47.974;13.826;2022-12-19T07:30:03;-4.70;99.90
30250;DHT22;17064;47.974;13.826;2022-12-19T07:35:05;-4.60;99.90
30250;DHT22;17064;47.974;13.826;2022-12-19T07:40:06;-4.50;99.90
30250;DHT22;17064;47.974;13.826;2022-12-19T07:45:07;-4.40;99.90
30250;DHT22;17064;47.974;13.826;2022-12-19T07:50:08;-4.30;99.90
30250;DHT22;17064;47.974;13.826;2022-12-19T07:55:09;-4.30;99.90
30250;DHT22;17064;47.974;13.826;2022-12-19T08:00:10;-4.30;99.90
30250;DHT22;17064;47.974;13.826;2022-12-19T08:05:11;-4.10;99.90
30250;DHT22;17064;47.974;13.826;2022-12-19T08:10:12;-4.00;99.90
30250;DHT22;17064;47.974;13.826;2022-12-19T08:15:14;-3.70;99.90
30250;DHT22;17064;47.974;13.826;2022-12-19T08:20:15;-3.50;99.90
30250;DHT22;17064;47.974;13.826;2022-12-19T08:25:16;-3.30;99.90
30250;DHT22;17064;47.974;13.826;2022-12-19T08:30:17;-3.20;99.90
30250;DHT22;17064;47.974;13.826;2022-12-19T08:35:18;-3.20;99.90
30250;DHT22;17064;47.974;13.826;2022-12-19T08:40:18;-3.00;99.90
30250;DHT22;17064;47.974;13.826;2022-12-19T08:45:19;-2.80;99.90
30250;DHT22;17064;47.974;13.826;2022-12-19T08:50:20;-2.70;99.90
30250;DHT22;17064;47.974;13.826;2022-12-19T08:55:21;-2.60;99.90
30250;DHT22;17064;47.974;13.826;2022-12-19T09:00:21;-2.50;99.90
30250;DHT22;17064;47.974;13.826;2022-12-19T09:05:22;-2.40;99.90
30250;DHT22;17064;47.974;13.826;2022-12-19T09:10:23;-2.30;99.90
30250;DHT22;17064;47.974;13.826;2022-12-19T09:15:23;-2.20;99.90
30250;DHT22;17064;47.974;13.826;2022-12-19T09:20:24;-2.20;99.90
30250;DHT22;17064;47.974;13.826;2022-12-19T09:25:25;-2.20;99.90
30250;DHT22;17064;47.974;13.826;2022-12-19T09:30:25;-2.20;99.90
30250;DHT22;17064;47.974;13.826;2022-12-19T09:35:26;-2.10;99.90
30250;DHT22;17064;47.974;13.826;2022-12-19T09:40:29;-1.70;99.90
30250;DHT22;17064;47.974;13.826;2022-12-19T09:45:40;-1.30;99.90
30250;DHT22;17064;47.974;13.826;2022-12-19T09:51:02;-1.00;99.90
30250;DHT22;17064;47.974;13.826;2022-12-19T09:56:11;-0.80;99.90
30250;DHT22;17064;47.974;13.826;2022-12-19T10:01:33;-0.70;99.90
30250;DHT22;17064;47.974;13.826;2022-12-19T10:06:36;-0.60;99.90
30250;DHT22;17064;47.974;13.826;2022-12-19T10:11:48;-0.60;99.90
30250;DHT22;17064;47.974;13.826;2022-12-19T10:27:40;-0.60;99.90
30250;DHT22;17064;47.974;13.826;2022-12-19T10:48:35;-0.30;99.90
30250;DHT22;17064;47.974;13.826;2022-12-19T10:53:35;-0.20;99.90
30250;DHT22;17064;47.974;13.826;2022-12-19T10:58:37;0.00;99.90
30250;DHT22;17064;47.974;13.826;2022-12-19T11:03:43;0.20;99.90
30250;DHT22;17064;47.974;13.826;2022-12-19T11:08:45;0.40;99.90
30250;DHT22;17064;47.974;13.826;2022-12-19T11:13:46;0.50;99.90
30250;DHT22;17064;47.974;13.826;2022-12-19T11:18:48;0.60;99.90
30250;DHT22;17064;47.974;13.826;2022-12-19T11:23:50;0.50;99.90
30250;DHT22;17064;47.974;13.826;2022-12-19T11:28:52;0.20;99.90
30250;DHT22;17064;47.974;13.826;2022-12-19T11:33:55;0.00;99.90
30250;DHT22;17064;47.974;13.826;2022-12-19T11:39:02;-0.10;99.90
30250;DHT22;17064;47.974;13.826;2022-12-19T11:54:35;0.30;99.90
30250;DHT22;17064;47.974;13.826;2022-12-19T11:59:38;0.50;99.90
30250;DHT22;17064;47.974;13.826;2022-12-19T12:15:44;0.40;99.90
30250;DHT22;17064;47.974;13.826;2022-12-19T12:26:30;0.40;99.90
30250;DHT22;17064;47.974;13.826;2022-12-19T12:47:27;0.30;99.90
30250;DHT22;17064;47.974;13.826;2022-12-19T12:52:39;0.00;99.90
30250;DHT22;17064;47.974;13.826;2022-12-19T12:57:48;-0.10;99.90
30250;DHT22;17064;47.974;13.826;2022-12-19T13:02:55;-0.20;99.90
30250;DHT22;17064;47.974;13.826;2022-12-19T13:07:57;-0.20;99.90
30250;DHT22;17064;47.974;13.826;2022-12-19T13:13:07;-0.10;99.90
30250;DHT22;17064;47.974;13.826;2022-12-19T13:18:30;-0.10;99.90
30250;DHT22;17064;47.974;13.826;2022-12-19T13:28:39;-0.30;99.90
30250;DHT22;17064;47.974;13.826;2022-12-19T13:33:48;-0.30;99.90
30250;DHT22;17064;47.974;13.826;2022-12-19T13:44:39;-0.50;99.90
30250;DHT22;17064;47.974;13.826;2022-12-19T13:49:42;-0.60;99.90
30250;DHT22;17064;47.974;13.826;2022-12-19T13:54:49;-0.60;99.90
30250;DHT22;17064;47.974;13.826;2022-12-19T13:59:51;-0.70;99.90
30250;DHT22;17064;47.974;13.826;2022-12-19T14:04:53;-0.70;99.90
30250;DHT22;17064;47.974;13.826;2022-12-19T14:09:55;-0.80;99.90
30250;DHT22;17064;47.974;13.826;2022-12-19T14:14:55;-0.90;99.90
30250;DHT22;17064;47.974;13.826;2022-12-19T14:20:21;-0.90;99.90
30250;DHT22;17064;47.974;13.826;2022-12-19T14:25:23;-1.00;99.90
30250;DHT22;17064;47.974;13.826;2022-12-19T14:30:29;-1.00;99.90
30250;DHT22;17064;47.974;13.826;2022-12-19T14:35:35;-1.10;99.90
30250;DHT22;17064;47.974;13.826;2022-12-19T14:40:38;-1.20;99.90
30250;DHT22;17064;47.974;13.826;2022-12-19T14:45:41;-1.30;99.90
30250;DHT22;17064;47.974;13.826;2022-12-19T14:50:42;-1.40;99.90
30250;DHT22;17064;47.974;13.826;2022-12-19T14:55:43;-1.60;99.90
30250;DHT22;17064;47.974;13.826;2022-12-19T15:00:48;-1.60;99.90
30250;DHT22;17064;47.974;13.826;2022-12-19T15:05:50;-1.70;99.90
30250;DHT22;17064;47.974;13.826;2022-12-19T15:10:57;-1.80;99.90
30250;DHT22;17064;47.974;13.826;2022-12-19T15:16:01;-1.90;99.90
30250;DHT22;17064;47.974;13.826;2022-12-19T15:21:09;-2.00;99.90
30250;DHT22;17064;47.974;13.826;2022-12-19T15:26:13;-2.00;99.90
30250;DHT22;17064;47.974;13.826;2022-12-19T15:36:26;-2.20;99.90
30250;DHT22;17064;47.974;13.826;2022-12-19T15:41:27;-2.20;99.90
30250;DHT22;17064;47.974;13.826;2022-12-19T15:46:29;-2.30;99.90
30250;DHT22;17064;47.974;13.826;2022-12-19T15:51:30;-2.40;99.90
30250;DHT22;17064;47.974;13.826;2022-12-19T15:56:34;-2.40;99.90
30250;DHT22;17064;47.974;13.826;2022-12-19T16:01:36;-2.40;99.90
30250;DHT22;17064;47.974;13.826;2022-12-19T16:06:36;-2.40;99.90
30250;DHT22;17064;47.974;13.826;2022-12-19T16:11:37;-2.40;99.90
30250;DHT22;17064;47.974;13.826;2022-12-19T16:16:38;-2.50;99.90
30250;DHT22;17064;47.974;13.826;2022-12-19T16:21:39;-2.50;99.90
30250;DHT22;17064;47.974;13.826;2022-12-19T16:26:40;-2.60;99.90
30250;DHT22;17064;47.974;13.826;2022-12-19T16:31:40;-2.60;99.90
30250;DHT22;17064;47.974;13.826;2022-12-19T16:36:41;-2.60;99.90
30250;DHT22;17064;47.974;13.826;2022-12-19T16:41:43;-2.70;99.90
30250;DHT22;17064;47.974;13.826;2022-12-19T16:46:45;-2.70;99.90
30250;DHT22;17064;47.974;13.826;2022-12-19T16:51:46;-2.70;99.90
30250;DHT22;17064;47.974;13.826;2022-12-19T16:56:50;-2.70;99.90
30250;DHT22;17064;47.974;13.826;2022-12-19T17:01:51;-2.70;99.90
30250;DHT22;17064;47.974;13.826;2022-12-19T17:06:53;-2.80;99.90
30250;DHT22;17064;47.974;13.826;2022-12-19T17:11:58;-2.80;99.90
30250;DHT22;17064;47.974;13.826;2022-12-19T17:17:00;-2.90;99.90
30250;DHT22;17064;47.974;13.826;2022-12-19T17:22:01;-2.90;99.90
30250;DHT22;17064;47.974;13.826;2022-12-19T17:27:01;-2.90;99.90
30250;DHT22;17064;47.974;13.826;2022-12-19T17:32:02;-2.90;99.90
30250;DHT22;17064;47.974;13.826;2022-12-19T17:37:04;-3.00;99.90
30250;DHT22;17064;47.974;13.826;2022-12-19T17:42:21;-2.90;99.90
30250;DHT22;17064;47.974;13.826;2022-12-19T17:47:22;-2.90;99.90
30250;DHT22;17064;47.974;13.826;2022-12-19T17:52:23;-2.90;99.90
30250;DHT22;17064;47.974;13.826;2022-12-19T17:57:24;-2.90;99.90
30250;DHT22;17064;47.974;13.826;2022-12-19T18:02:26;-3.00;99.90
30250;DHT22;17064;47.974;13.826;2022-12-19T18:07:27;-3.00;99.90
30250;DHT22;17064;47.974;13.826;2022-12-19T18:12:27;-3.00;99.90
30250;DHT22;17064;47.974;13.826;2022-12-19T18:17:28;-3.00;99.90
30250;DHT22;17064;47.974;13.826;2022-12-19T18:22:29;-3.00;99.90
30250;DHT22;17064;47.974;13.826;2022-12-19T18:27:30;-3.00;99.90
30250;DHT22;17064;47.974;13.826;2022-12-19T18:32:31;-2.90;99.90
30250;DHT22;17064;47.974;13.826;2022-12-19T18:37:32;-2.80;99.90
30250;DHT22;17064;47.974;13.826;2022-12-19T18:42:33;-2.80;99.90
30250;DHT22;17064;47.974;13.826;2022-12-19T18:47:34;-2.80;99.90
30250;DHT22;17064;47.974;13.826;2022-12-19T18:52:35;-2.70;99.90
30250;DHT22;17064;47.974;13.826;2022-12-19T18:57:36;-2.80;99.90
30250;DHT22;17064;47.974;13.826;2022-12-19T19:02:38;-2.80;99.90
30250;DHT22;17064;47.974;13.826;2022-12-19T19:07:43;-2.70;99.90
30250;DHT22;17064;47.974;13.826;2022-12-19T19:12:44;-2.80;99.90
30250;DHT22;17064;47.974;13.826;2022-12-19T19:17:48;-2.80;99.90
30250;DHT22;17064;47.974;13.826;2022-12-19T19:22:50;-2.90;99.90
30250;DHT22;17064;47.974;13.826;2022-12-19T19:27:51;-2.90;99.90
30250;DHT22;17064;47.974;13.826;2022-12-19T19:32:56;-3.00;99.90
30250;DHT22;17064;47.974;13.826;2022-12-19T19:38:00;-3.10;99.90
30250;DHT22;17064;47.974;13.826;2022-12-19T19:43:06;-3.20;99.90
30250;DHT22;17064;47.974;13.826;2022-12-19T19:48:07;-3.20;99.90
30250;DHT22;17064;47.974;13.826;2022-12-19T19:53:08;-3.10;99.90
30250;DHT22;17064;47.974;13.826;2022-12-19T19:58:11;-3.10;99.90
30250;DHT22;17064;47.974;13.826;2022-12-19T20:03:12;-3.00;99.90
30250;DHT22;17064;47.974;13.826;2022-12-19T20:08:13;-3.00;99.90
30250;DHT22;17064;47.974;13.826;2022-12-19T20:13:14;-3.00;99.90
30250;DHT22;17064;47.974;13.826;2022-12-19T20:18:15;-3.00;99.90
30250;DHT22;17064;47.974;13.826;2022-12-19T20:23:16;-3.00;99.90
30250;DHT22;17064;47.974;13.826;2022-12-19T20:28:16;-3.00;99.90
30250;DHT22;17064;47.974;13.826;2022-12-19T20:33:17;-2.90;99.90
30250;DHT22;17064;47.974;13.826;2022-12-19T20:38:18;-2.90;99.90
30250;DHT22;17064;47.974;13.826;2022-12-19T20:43:19;-3.00;99.90
30250;DHT22;17064;47.974;13.826;2022-12-19T20:48:20;-3.00;99.90
30250;DHT22;17064;47.974;13.826;2022-12-19T20:53:20;-3.10;99.90
30250;DHT22;17064;47.974;13.826;2022-12-19T20:58:22;-3.00;99.90
30250;DHT22;17064;47.974;13.826;2022-12-19T21:03:22;-3.00;99.90
30250;DHT22;17064;47.974;13.826;2022-12-19T21:08:24;-2.90;99.90
30250;DHT22;17064;47.974;13.826;2022-12-19T21:13:25;-2.90;99.90
30250;DHT22;17064;47.974;13.826;2022-12-19T21:18:26;-2.80;99.90
30250;DHT22;17064;47.974;13.826;2022-12-19T21:23:27;-2.80;99.90
30250;DHT22;17064;47.974;13.826;2022-12-19T21:28:28;-2.80;99.90
30250;DHT22;17064;47.974;13.826;2022-12-19T21:33:29;-2.70;99.90
30250;DHT22;17064;47.974;13.826;2022-12-19T21:38:30;-2.80;99.90
30250;DHT22;17064;47.974;13.826;2022-12-19T21:43:32;-2.80;99.90
30250;DHT22;17064;47.974;13.826;2022-12-19T21:48:41;-2.80;99.90
30250;DHT22;17064;47.974;13.826;2022-12-19T21:53:42;-2.80;99.90
30250;DHT22;17064;47.974;13.826;2022-12-19T21:58:43;-2.70;99.90
30250;DHT22;17064;47.974;13.826;2022-12-19T22:03:44;-2.70;99.90
30250;DHT22;17064;47.974;13.826;2022-12-19T22:08:45;-2.70;99.90
30250;DHT22;17064;47.974;13.826;2022-12-19T22:13:47;-2.80;99.90
30250;DHT22;17064;47.974;13.826;2022-12-19T22:18:48;-2.80;99.90
30250;DHT22;17064;47.974;13.826;2022-12-19T22:23:50;-2.80;99.90
30250;DHT22;17064;47.974;13.826;2022-12-19T22:28:56;-2.70;99.90
30250;DHT22;17064;47.974;13.826;2022-12-19T22:34:15;-2.80;99.90
30250;DHT22;17064;47.974;13.826;2022-12-19T22:39:17;-2.80;99.90
30250;DHT22;17064;47.974;13.826;2022-12-19T22:44:21;-2.80;99.90
30250;DHT22;17064;47.974;13.826;2022-12-19T22:49:22;-2.70;99.90
30250;DHT22;17064;47.974;13.826;2022-12-19T22:54:23;-2.80;99.90
30250;DHT22;17064;47.974;13.826;2022-12-19T22:59:23;-2.80;99.90
30250;DHT22;17064;47.974;13.826;2022-12-19T23:04:24;-2.80;99.90
30250;DHT22;17064;47.974;13.826;2022-12-19T23:09:25;-2.80;99.90
30250;DHT22;17064;47.974;13.826;2022-12-19T23:14:27;-2.80;99.90
30250;DHT22;17064;47.974;13.826;2022-12-19T23:19:27;-2.80;99.90
30250;DHT22;17064;47.974;13.826;2022-12-19T23:24:28;-2.80;99.90
30250;DHT22;17064;47.974;13.826;2022-12-19T23:29:29;-2.80;99.90
30250;DHT22;17064;47.974;13.826;2022-12-19T23:34:29;-2.80;99.90
30250;DHT22;17064;47.974;13.826;2022-12-19T23:39:30;-2.80;99.90
30250;DHT22;17064;47.974;13.826;2022-12-19T23:44:31;-2.90;99.90
30250;DHT22;17064;47.974;13.826;2022-12-19T23:49:32;-2.80;99.90
30250;DHT22;17064;47.974;13.826;2022-12-19T23:54:33;-2.80;99.90
30250;DHT22;17064;47.974;13.826;2022-12-19T23:59:34;-2.80;99.90
